Terminal Aerodrome Forecast
Issued by NWS Northern Indiana

Home | Current Version | Previous Version | Text Only | Print | Product List | Glossary Off
Versions: 1 2 3 4 5 6 7 8 9 10 11 12 13 14 15 16 17 18

490
FTUS43 KIWX 261120
TAFFWA
TAF
KFWA 261120Z 2612/2712 28006KT 3SM BR BKN004
     FM261400 28007KT P6SM BKN015
     FM261800 23008KT P6SM BKN150
     FM262300 15010KT P6SM VCTS BKN100CB
     FM270200 16012KT 4SM -TSRA BR BKN035CB
     FM270800 28008KT P6SM OVC015=

USA.gov is the U.S. government's official web portal to all federal, state and local government web resources and services.